PWSweather.com
Personal Weather Stations
Station Observations
WISCHPK61
Green Bay Schmitt Park, Green Bay, WI 54311

Green Bay Schmitt ParkGreen Bay, WI 54311

Lat: 44.514277, Lon: -87.935067

Elevation: 735

Station Type: Acu Rite Pro Weather Center model 02032C

http://greenbayweathercam.com

High Low Average
Temperature 61.7°F16.5°C 52.2°F11.2°C 56.2°F13.4°C
Dew Point 61.4°F16.3°C 45.9°F7.7°C 54.6°F12.6°C
Winds 1.2 mph 1.9 kmh Calm Calm Calm SCalm S
Wind Gusts 2.3 mph3.7 kmh -- --
Humidity 99% 66% 95%
Pressure 29.22 in989.5 mb 28.99 in981.7 mb -
Precipitation 0.38 in9.7 mm - -
Hour Temp Dew Point Humidity Winds Wind Gusts Pressure Precip Precip Rate Daily Precip Total
12:00 AM 53.8°F12.1°C 49.1°F9.5°C 84% Calm Calm -- 29.22 in989.5 mb - 0.00 in0.0 mm 0.00 in0.0 mm
01:00 AM 52.9°F11.6°C 45.9°F7.7°C 77% Calm Calm -- 29.22 in989.5 mb - 0.00 in0.0 mm 0.00 in0.0 mm
02:00 AM 52.5°F11.4°C 52.2°F11.2°C 99% Calm Calm -- 29.22 in989.5 mb - 0.00 in0.0 mm 0.00 in0.0 mm
03:00 AM 52.2°F11.2°C 51.9°F11.1°C 99% Calm Calm -- 29.21 in989.2 mb - 0.00 in0.0 mm 0.00 in0.0 mm
04:00 AM 52.2°F11.2°C 51.9°F11.1°C 99% Calm Calm -- 29.22 in989.5 mb - 0.00 in0.0 mm 0.00 in0.0 mm
05:00 AM 53.8°F12.1°C 50.9°F10.5°C 90% Calm Calm -- 29.22 in989.5 mb - 0.00 in0.0 mm 0.00 in0.0 mm
06:00 AM 56.9°F13.8°C 56.6°F13.7°C 99% Calm Calm -- 29.21 in989.2 mb - 0.00 in0.0 mm 0.00 in0.0 mm
07:00 AM 58.8°F14.9°C 47.5°F8.6°C 66% Calm Calm -- 29.21 in989.2 mb - 0.00 in0.0 mm 0.00 in0.0 mm
08:00 AM 59.4°F15.2°C 59.1°F15.1°C 99% Calm Calm -- 29.19 in988.5 mb - 0.00 in0.0 mm 0.00 in0.0 mm
09:00 AM 55.0°F12.8°C 54.7°F12.6°C 99% Calm Calm -- 29.20 in988.8 mb - 0.03 in0.8 mm 0.03 in0.8 mm
10:00 AM 54.1°F12.3°C 53.8°F12.1°C 99% Calm Calm -- 29.18 in988.1 mb - 0.15 in3.8 mm 0.18 in4.6 mm
11:00 AM 56.1°F13.4°C 55.3°F12.9°C 97% Calm Calm 2.3 mph3.7 kmh 29.14 in986.8 mb - 0.06 in1.5 mm 0.24 in6.1 mm
12:00 PM 56.8°F13.8°C 56.2°F13.4°C 98% Calm Calm -- 29.14 in986.8 mb - 0.00 in0.0 mm 0.24 in6.1 mm
01:00 PM 57.9°F14.4°C 57.6°F14.2°C 99% Calm Calm -- 29.09 in985.1 mb - 0.01 in0.3 mm 0.25 in6.4 mm
02:00 PM 56.5°F13.6°C 56.2°F13.4°C 99% Calm Calm -- 29.07 in984.4 mb - 0.00 in0.0 mm 0.25 in6.4 mm
03:00 PM 54.7°F12.6°C 54.4°F12.4°C 99% Calm Calm -- 29.06 in984.1 mb - 0.00 in0.0 mm 0.25 in6.4 mm
04:00 PM 54.1°F12.3°C 53.5°F11.9°C 98% Calm Calm -- 29.06 in984.1 mb - 0.04 in1.0 mm 0.29 in7.4 mm
05:00 PM 54.3°F12.4°C 50.2°F10.1°C 86% Calm Calm -- 29.03 in983.1 mb - 0.02 in0.5 mm 0.30 in7.6 mm
06:00 PM 57.2°F14.0°C 55.2°F12.9°C 93% Calm Calm -- 29.00 in982.1 mb - 0.00 in0.0 mm 0.30 in7.6 mm
07:00 PM 58.6°F14.8°C 58.3°F14.6°C 99% Calm Calm -- 29.00 in982.1 mb - 0.00 in0.0 mm 0.30 in7.6 mm
08:00 PM 59.2°F15.1°C 58.9°F14.9°C 99% Calm Calm -- 28.99 in981.7 mb - 0.05 in1.3 mm 0.35 in8.9 mm
09:00 PM 59.7°F15.4°C 59.4°F15.2°C 99% Calm Calm 1.2 mph1.9 kmh 29.00 in982.1 mb - 0.03 in0.8 mm 0.38 in9.7 mm
10:00 PM 61.0°F16.1°C 60.7°F15.9°C 99% 1.2 mph SE1.9 kmh SE 2.3 mph3.7 kmh 29.00 in982.1 mb - 0.00 in0.0 mm 0.38 in9.7 mm
11:00 PM 61.7°F16.5°C 61.4°F16.3°C 99% Calm Calm -- 29.01 in982.4 mb - 0.00 in0.0 mm 0.39 in9.9 mm